Time;durP1;ratioP1;P1;durP2;ratioP2;P2;SDS_P1;SDS_P2;PMS_P1;PMS_P2;Temp;Humidity;BMP_temperature;BMP_pressure;BME280_temperature;BME280_humidity;BME280_pressure;Samples;Min_cycle;Max_cycle;Signal;HPM_P1;HPM_P2
2020/12/01 00:00:00;;;;;;;30.30;14.65;;;4.70;99.90;;;;;;5135397;27;20027;-73
2020/12/01 00:02:26;;;;;;;27.17;14.57;;;4.60;99.90;;;;;;5135400;27;20035;-73
2020/12/01 00:04:52;;;;;;;23.77;14.07;;;4.60;99.90;;;;;;5116391;27;20023;-73
2020/12/01 00:07:18;;;;;;;24.45;14.90;;;4.60;99.90;;;;;;5135032;27;20023;-73
2020/12/01 00:09:44;;;;;;;27.38;14.68;;;4.60;99.90;;;;;;5135016;27;20036;-73
2020/12/01 00:12:10;;;;;;;25.25;14.40;;;4.70;99.90;;;;;;5134974;27;20019;-73
2020/12/01 00:14:35;;;;;;;23.25;12.75;;;4.70;99.90;;;;;;5134987;27;20015;-73
2020/12/01 00:17:01;;;;;;;24.60;13.38;;;4.70;99.90;;;;;;5134933;27;20031;-73
2020/12/01 00:19:27;;;;;;;27.73;14.75;;;4.80;99.90;;;;;;5135184;27;20023;-73
2020/12/01 00:21:52;;;;;;;23.73;14.77;;;4.80;99.90;;;;;;5134851;27;20422;-73
2020/12/01 00:24:18;;;;;;;26.02;14.90;;;4.70;99.90;;;;;;5135117;27;20024;-73
2020/12/01 00:26:44;;;;;;;25.25;14.57;;;4.80;99.90;;;;;;5134762;27;20067;-73
2020/12/01 00:29:10;;;;;;;24.42;14.20;;;4.80;99.90;;;;;;5134780;27;20027;-73
2020/12/01 00:31:44;;;;;;;23.90;13.70;;;4.80;99.90;;;;;;5116916;28;20019;-73
2020/12/01 00:34:11;;;;;;;21.27;13.57;;;4.80;99.90;;;;;;5135046;28;20067;-73
2020/12/01 00:36:37;;;;;;;20.95;12.52;;;4.80;99.90;;;;;;5116380;28;20448;-73
2020/12/01 00:39:05;;;;;;;18.98;11.25;;;4.80;99.90;;;;;;5134704;28;20031;-73
2020/12/01 00:41:30;;;;;;;16.25;9.70;;;4.70;99.90;;;;;;5116023;28;20027;-73
2020/12/01 00:43:56;;;;;;;18.98;11.10;;;4.70;99.90;;;;;;5134688;28;20038;-73
2020/12/01 00:46:22;;;;;;;19.15;10.13;;;4.70;99.90;;;;;;5134948;28;20031;-73
2020/12/01 00:48:47;;;;;;;21.75;12.57;;;4.70;99.90;;;;;;5134544;28;20027;-73
2020/12/01 00:51:13;;;;;;;17.75;11.27;;;4.70;99.90;;;;;;5115903;28;20072;-73
2020/12/01 00:53:39;;;;;;;18.63;12.02;;;4.70;99.90;;;;;;5116431;28;20054;-73
2020/12/01 00:56:05;;;;;;;18.02;10.63;;;4.70;99.90;;;;;;5134775;28;20030;-73
2020/12/01 00:58:30;;;;;;;21.48;11.25;;;4.70;99.90;;;;;;5134493;28;20482;-73
2020/12/01 01:00:56;;;;;;;17.33;10.93;;;4.70;99.90;;;;;;5134490;28;20494;-73
2020/12/01 01:03:21;;;;;;;18.52;11.20;;;4.70;99.90;;;;;;5134485;28;20030;-73
2020/12/01 01:05:47;;;;;;;16.90;9.98;;;4.70;99.90;;;;;;5134432;28;20392;-73
2020/12/01 01:08:13;;;;;;;17.02;10.05;;;4.70;99.90;;;;;;5134655;27;20051;-73
2020/12/01 01:10:39;;;;;;;18.67;10.82;;;4.70;99.90;;;;;;5137090;27;20022;-73
2020/12/01 01:13:05;;;;;;;16.42;10.80;;;4.70;99.90;;;;;;5138083;27;20015;-73
2020/12/01 01:15:34;;;;;;;15.43;9.95;;;4.70;99.90;;;;;;5120323;27;20102;-73
2020/12/01 01:18:01;;;;;;;15.95;9.75;;;4.70;99.90;;;;;;5120474;27;20444;-73
2020/12/01 01:20:27;;;;;;;15.95;9.75;;;4.70;99.90;;;;;;5120341;27;20038;-73
2020/12/01 01:22:53;;;;;;;18.45;10.57;;;4.80;99.90;;;;;;5138195;27;20019;-73
2020/12/01 01:25:19;;;;;;;15.90;9.80;;;4.70;99.90;;;;;;5138413;27;20448;-73
2020/12/01 01:27:45;;;;;;;16.30;10.20;;;4.70;99.90;;;;;;5119584;27;20066;-73
2020/12/01 01:30:15;;;;;;;15.05;9.57;;;4.80;99.90;;;;;;5119721;27;20020;-73
2020/12/01 01:32:40;;;;;;;15.38;9.35;;;4.80;99.90;;;;;;5138283;27;20015;-73
2020/12/01 01:35:06;;;;;;;16.60;10.07;;;4.70;99.90;;;;;;5138218;27;20027;-73
2020/12/01 01:37:32;;;;;;;17.15;11.15;;;4.70;99.90;;;;;;5137888;27;20023;-73
2020/12/01 01:39:58;;;;;;;19.30;10.77;;;4.70;99.90;;;;;;5138093;27;20393;-73
2020/12/01 01:42:24;;;;;;;16.85;10.73;;;4.80;99.90;;;;;;5102189;27;20019;-73
2020/12/01 01:44:50;;;;;;;18.17;10.73;;;4.70;99.90;;;;;;5119095;27;20034;-73
2020/12/01 01:47:26;;;;;;;15.70;10.13;;;4.80;99.90;;;;;;5137653;27;20016;-73
2020/12/01 01:49:56;;;;;;;15.77;9.80;;;4.70;99.90;;;;;;5102360;27;20046;-73
2020/12/01 01:52:28;;;;;;;26.00;10.10;;;4.80;99.90;;;;;;5137891;27;20168;-73
2020/12/01 01:54:59;;;;;;;15.00;9.07;;;4.80;99.90;;;;;;5137887;27;20015;-73
2020/12/01 01:57:26;;;;;;;16.80;10.55;;;4.80;99.90;;;;;;5119067;27;20030;-73
2020/12/01 01:59:52;;;;;;;17.83;10.43;;;4.80;99.90;;;;;;5118865;27;20023;-73
2020/12/01 02:02:18;;;;;;;16.45;9.95;;;4.80;99.90;;;;;;5137696;27;20035;-73
2020/12/01 02:04:44;;;;;;;15.15;10.15;;;4.80;99.90;;;;;;5137097;27;20026;-73
2020/12/01 02:07:09;;;;;;;16.85;10.55;;;4.80;99.90;;;;;;5118996;27;20114;-73
2020/12/01 02:09:47;;;;;;;17.15;10.10;;;4.80;99.90;;;;;;5118613;27;20015;-73
2020/12/01 02:12:16;;;;;;;17.40;10.00;;;4.80;99.90;;;;;;5119189;27;20138;-73
2020/12/01 02:14:49;;;;;;;18.25;10.70;;;4.80;99.90;;;;;;5119119;27;20402;-73
2020/12/01 02:17:36;;;;;;;17.83;10.48;;;4.80;99.90;;;;;;5137409;27;20418;-73
2020/12/01 02:20:09;;;;;;;16.02;10.23;;;4.80;99.90;;;;;;5117975;27;20035;-73
2020/12/01 02:22:36;;;;;;;19.05;11.73;;;4.80;99.90;;;;;;5137320;27;20515;-73
2020/12/01 02:25:03;;;;;;;18.67;12.23;;;4.90;99.90;;;;;;5118848;27;20035;-73
2020/12/01 02:27:28;;;;;;;18.13;11.38;;;4.80;99.90;;;;;;5117916;27;20043;-73
2020/12/01 02:29:57;;;;;;;18.75;11.90;;;4.90;99.90;;;;;;5137195;27;20080;-73
2020/12/01 02:32:24;;;;;;;18.50;12.02;;;4.90;99.90;;;;;;5118536;27;20560;-73
2020/12/01 02:34:51;;;;;;;21.67;12.75;;;4.90;99.90;;;;;;5137080;27;20023;-73
2020/12/01 02:37:21;;;;;;;19.92;12.55;;;4.90;99.90;;;;;;5136758;27;20072;-73
2020/12/01 02:39:47;;;;;;;16.92;11.75;;;4.90;99.90;;;;;;5118344;27;20053;-73
2020/12/01 02:42:16;;;;;;;17.27;11.63;;;5.00;99.90;;;;;;5118355;27;20023;-73
2020/12/01 02:44:42;;;;;;;18.27;11.70;;;5.00;99.90;;;;;;5136882;27;20114;-73
2020/12/01 02:47:08;;;;;;;20.98;12.48;;;5.00;99.90;;;;;;5118559;27;20102;-73
2020/12/01 02:49:35;;;;;;;20.38;13.00;;;5.00;99.90;;;;;;5136822;27;20023;-73
2020/12/01 02:52:01;;;;;;;19.45;12.45;;;5.00;99.90;;;;;;5118135;27;20054;-73
2020/12/01 02:54:26;;;;;;;23.65;15.80;;;5.10;99.90;;;;;;5136413;27;20015;-73
2020/12/01 02:56:52;;;;;;;24.55;14.63;;;5.10;99.90;;;;;;5118573;27;20026;-73
2020/12/01 02:59:18;;;;;;;27.38;16.50;;;5.10;99.90;;;;;;5118050;27;20015;-73
2020/12/01 03:01:44;;;;;;;31.60;17.58;;;5.10;99.90;;;;;;5118346;27;20023;-73
2020/12/01 03:04:10;;;;;;;27.92;17.27;;;5.10;99.90;;;;;;5135919;27;20023;-73
2020/12/01 03:06:35;;;;;;;30.55;18.65;;;5.00;99.90;;;;;;5135884;27;20030;-73
2020/12/01 03:09:06;;;;;;;37.65;21.02;;;5.00;99.90;;;;;;5136337;27;20023;-73
2020/12/01 03:11:31;;;;;;;34.70;20.08;;;5.10;99.90;;;;;;5136107;27;20372;-73
2020/12/01 03:13:57;;;;;;;33.60;18.75;;;5.10;99.90;;;;;;5135956;27;20011;-73
2020/12/01 03:16:22;;;;;;;38.63;21.05;;;5.10;99.90;;;;;;5135969;27;20446;-73
2020/12/01 03:18:48;;;;;;;38.65;22.70;;;5.10;99.90;;;;;;5117224;27;20076;-73
2020/12/01 03:21:15;;;;;;;44.78;23.13;;;5.10;99.90;;;;;;5117577;27;20062;-73
2020/12/01 03:23:42;;;;;;;42.33;22.95;;;5.10;99.90;;;;;;5136893;27;20020;-74
2020/12/01 03:26:10;;;;;;;48.35;25.95;;;5.10;99.90;;;;;;5136220;27;20072;-75
2020/12/01 03:28:36;;;;;;;42.17;23.00;;;5.00;99.90;;;;;;5116992;27;20070;-75
2020/12/01 03:31:01;;;;;;;43.03;23.45;;;5.10;99.90;;;;;;5135697;27;20137;-75
2020/12/01 03:33:27;;;;;;;51.08;27.48;;;5.10;99.90;;;;;;5135169;27;20035;-75
2020/12/01 03:35:53;;;;;;;48.92;26.40;;;5.10;99.90;;;;;;5135846;27;20107;-73
2020/12/01 03:38:19;;;;;;;46.88;25.42;;;5.10;99.90;;;;;;5135790;27;20019;-73
2020/12/01 03:40:45;;;;;;;48.08;27.35;;;5.10;99.90;;;;;;5135520;27;20377;-73
2020/12/01 03:43:11;;;;;;;46.63;25.58;;;5.10;99.90;;;;;;5117734;27;20114;-73
2020/12/01 03:45:36;;;;;;;52.90;29.00;;;5.10;99.90;;;;;;5117086;27;20539;-73
2020/12/01 03:48:02;;;;;;;49.80;25.85;;;5.10;99.90;;;;;;5135272;27;20027;-73
2020/12/01 03:50:28;;;;;;;46.33;23.67;;;5.10;99.90;;;;;;5135627;27;20051;-73
2020/12/01 03:52:54;;;;;;;50.92;25.88;;;5.20;99.90;;;;;;5116656;27;20054;-73
2020/12/01 03:55:21;;;;;;;53.72;28.55;;;5.20;99.90;;;;;;5135490;27;20059;-73
2020/12/01 03:57:47;;;;;;;41.85;23.83;;;5.10;99.90;;;;;;5135178;27;20027;-73
2020/12/01 04:00:18;;;;;;;43.00;23.05;;;5.10;99.90;;;;;;5135185;27;20102;-73
2020/12/01 04:02:43;;;;;;;42.22;21.73;;;5.20;99.90;;;;;;5135139;27;20019;-73
2020/12/01 04:05:10;;;;;;;41.80;22.38;;;5.10;99.90;;;;;;5135086;27;20084;-73
2020/12/01 04:07:36;;;;;;;36.22;20.35;;;5.10;99.90;;;;;;5116641;27;20031;-73
2020/12/01 04:10:03;;;;;;;34.75;19.35;;;5.10;99.90;;;;;;5135040;27;20031;-73
2020/12/01 04:12:29;;;;;;;35.58;19.52;;;5.10;99.90;;;;;;5116662;27;20075;-73
2020/12/01 04:14:55;;;;;;;35.45;19.58;;;5.10;99.90;;;;;;5135233;27;20359;-73
2020/12/01 04:17:21;;;;;;;30.33;17.15;;;5.10;99.90;;;;;;5134935;27;20034;-73
2020/12/01 04:19:46;;;;;;;31.65;16.85;;;5.10;99.90;;;;;;5135169;27;20030;-73
2020/12/01 04:22:13;;;;;;;28.35;16.48;;;5.10;99.90;;;;;;5135189;27;20031;-73
2020/12/01 04:24:40;;;;;;;33.80;17.02;;;5.10;99.90;;;;;;5116955;28;20444;-73
2020/12/01 04:27:05;;;;;;;34.80;17.20;;;5.10;99.90;;;;;;5134688;27;20092;-73
2020/12/01 04:29:31;;;;;;;32.15;17.23;;;5.10;99.90;;;;;;5135063;27;20016;-73
2020/12/01 04:31:57;;;;;;;31.15;16.88;;;5.10;99.90;;;;;;5134468;28;20026;-73
2020/12/01 04:34:22;;;;;;;30.20;17.23;;;5.10;99.90;;;;;;5116427;28;20024;-73
2020/12/01 04:36:48;;;;;;;30.38;16.60;;;5.10;99.90;;;;;;5116063;28;20110;-73
2020/12/01 04:39:14;;;;;;;32.95;16.27;;;5.10;99.90;;;;;;5134983;28;20023;-73
2020/12/01 04:41:40;;;;;;;31.90;17.20;;;5.10;99.90;;;;;;5134679;28;20064;-73
2020/12/01 04:44:16;;;;;;;33.60;16.42;;;5.10;99.90;;;;;;5118541;27;20372;-73
2020/12/01 04:46:42;;;;;;;34.50;18.35;;;5.10;99.90;;;;;;5139195;27;20041;-73
2020/12/01 04:49:21;;;;;;;27.58;16.38;;;5.10;99.90;;;;;;5139010;27;20032;-73
2020/12/01 04:52:22;;;;;;;32.15;16.20;;;5.10;99.90;;;;;;5121316;27;20063;-73
2020/12/01 04:55:27;;;;;;;31.45;16.98;;;5.20;99.90;;;;;;5123286;27;20030;-73
2020/12/01 04:58:13;;;;;;;31.90;16.60;;;5.10;99.90;;;;;;5138237;27;20066;-73
2020/12/01 05:00:54;;;;;;;33.25;17.65;;;5.20;99.90;;;;;;5138897;27;20050;-73
2020/12/01 05:06:41;;;;;;;31.75;17.73;;;5.10;99.90;;;;;;5112214;27;20351;-69
2020/12/01 05:09:17;;;;;;;32.67;17.38;;;5.10;99.90;;;;;;5111881;28;20027;-69
2020/12/01 05:11:54;;;;;;;31.42;16.67;;;5.10;99.90;;;;;;5111901;28;20023;-69
2020/12/01 05:14:25;;;;;;;32.88;17.92;;;5.10;99.90;;;;;;5111548;28;20059;-69
2020/12/01 05:17:01;;;;;;;32.90;18.08;;;5.10;99.90;;;;;;5110693;28;20032;-71
2020/12/01 05:19:43;;;;;;;33.72;17.63;;;5.10;99.90;;;;;;5111499;28;20031;-71
2020/12/01 05:22:11;;;;;;;31.33;17.40;;;5.10;99.90;;;;;;5111690;28;20024;-71
2020/12/01 05:24:39;;;;;;;31.60;17.33;;;5.10;99.90;;;;;;5111253;28;20024;-71
2020/12/01 05:27:05;;;;;;;33.55;17.95;;;5.10;99.90;;;;;;5111036;28;20066;-71
2020/12/01 05:29:30;;;;;;;36.17;18.10;;;5.10;99.90;;;;;;5111006;28;20028;-71
2020/12/01 05:31:56;;;;;;;38.65;18.48;;;5.10;99.90;;;;;;5110183;28;20372;-71
2020/12/01 05:34:22;;;;;;;38.75;19.17;;;5.10;99.90;;;;;;5109631;28;20024;-71
2020/12/01 05:36:49;;;;;;;32.58;17.45;;;5.20;99.90;;;;;;5111144;28;20020;-71
2020/12/01 05:39:19;;;;;;;36.40;18.73;;;5.20;99.90;;;;;;5111348;28;20368;-70
2020/12/01 05:41:59;;;;;;;34.28;17.80;;;5.20;99.90;;;;;;5111364;28;20052;-70
2020/12/01 05:44:28;;;;;;;40.60;18.58;;;5.20;99.90;;;;;;5111200;28;20514;-70
2020/12/01 05:47:09;;;;;;;38.47;19.85;;;5.20;99.90;;;;;;5109790;28;20027;-70
2020/12/01 05:49:40;;;;;;;40.97;21.35;;;5.20;99.90;;;;;;5109608;28;20027;-71
2020/12/01 05:52:17;;;;;;;36.03;19.25;;;5.20;99.90;;;;;;5110552;28;20024;-71
2020/12/01 05:54:47;;;;;;;34.15;18.35;;;5.30;99.90;;;;;;5111029;28;20438;-71
2020/12/01 05:57:25;;;;;;;35.20;18.95;;;5.30;99.90;;;;;;5111022;28;20024;-70
2020/12/01 06:00:04;;;;;;;34.08;18.58;;;5.20;99.90;;;;;;5110977;28;20020;-71
2020/12/01 06:03:06;;;;;;;32.13;18.40;;;5.20;99.90;;;;;;5109133;28;20031;-70
2020/12/01 06:05:37;;;;;;;31.95;18.05;;;5.20;99.90;;;;;;5110118;28;20126;-70
2020/12/01 06:08:27;;;;;;;30.67;17.95;;;5.20;99.90;;;;;;5109351;28;20081;-71
2020/12/01 06:11:17;;;;;;;35.17;17.77;;;5.20;99.90;;;;;;5108889;28;20024;-71
2020/12/01 06:13:45;;;;;;;31.73;17.90;;;5.20;99.90;;;;;;5108759;28;20047;-71
2020/12/01 06:16:51;;;;;;;30.27;17.27;;;5.20;99.90;;;;;;5085061;28;20052;-69
2020/12/01 06:19:43;;;;;;;29.70;16.77;;;5.20;99.90;;;;;;5096403;28;20028;-71
2020/12/01 06:28:36;;;;;;;29.63;16.30;;;5.20;99.90;;;;;;5091767;27;20349;-71
2020/12/01 06:31:20;;;;;;;28.30;16.55;;;5.20;99.90;;;;;;5089547;28;20397;-69
2020/12/01 06:34:24;;;;;;;34.05;16.80;;;5.20;99.90;;;;;;5091434;28;20435;-71
2020/12/01 06:37:18;;;;;;;26.23;15.95;;;5.30;99.90;;;;;;5088775;28;20064;-69
2020/12/01 06:39:57;;;;;;;30.15;16.13;;;5.30;99.90;;;;;;5084683;28;20029;-69
2020/12/01 06:42:34;;;;;;;34.83;18.50;;;5.30;99.90;;;;;;5085120;28;20470;-68
2020/12/01 06:45:06;;;;;;;32.67;17.30;;;5.20;99.90;;;;;;5086785;28;20359;-69
2020/12/01 06:47:33;;;;;;;26.77;16.40;;;5.30;99.90;;;;;;5088249;28;20026;-67
2020/12/01 06:50:07;;;;;;;34.20;17.73;;;5.30;99.90;;;;;;5091188;28;20028;-68
2020/12/01 06:52:32;;;;;;;28.60;15.70;;;5.30;99.90;;;;;;5089636;28;20440;-68
2020/12/01 06:54:58;;;;;;;28.70;16.88;;;5.30;99.90;;;;;;5089614;28;20047;-68
2020/12/01 06:57:35;;;;;;;33.03;17.75;;;5.30;99.90;;;;;;5088991;28;20021;-68
2020/12/01 07:00:03;;;;;;;31.13;17.23;;;5.30;99.90;;;;;;5090375;28;20497;-68
2020/12/01 07:02:35;;;;;;;32.75;17.80;;;5.30;99.90;;;;;;5089127;28;20040;-68
2020/12/01 07:05:08;;;;;;;33.85;16.95;;;5.30;99.90;;;;;;5055680;28;20081;-68
2020/12/01 07:07:37;;;;;;;29.55;17.50;;;5.30;99.90;;;;;;5089806;28;20032;-68
2020/12/01 07:10:25;;;;;;;32.65;17.25;;;5.30;99.90;;;;;;5088409;28;21164;-69
2020/12/01 07:13:04;;;;;;;29.48;17.88;;;5.30;99.90;;;;;;5088285;28;20031;-69
2020/12/01 07:15:39;;;;;;;30.58;16.40;;;5.30;99.90;;;;;;5089435;28;20013;-68
2020/12/01 07:21:20;;;;;;;31.25;17.88;;;5.40;99.90;;;;;;5090484;28;20344;-66
2020/12/01 07:24:04;;;;;;;29.05;16.25;;;5.40;99.90;;;;;;5088249;28;20032;-65
2020/12/01 07:26:56;;;;;;;29.58;17.45;;;5.40;99.90;;;;;;5070094;28;20032;-66
2020/12/01 07:29:42;;;;;;;34.72;18.73;;;5.50;99.90;;;;;;5069774;28;20044;-66
2020/12/01 07:32:24;;;;;;;43.13;22.73;;;5.50;99.90;;;;;;5071138;28;20082;-66
2020/12/01 07:35:06;;;;;;;55.58;26.30;;;5.50;99.90;;;;;;5069162;28;20380;-66
2020/12/01 07:37:53;;;;;;;48.83;27.15;;;5.50;99.90;;;;;;5077616;28;20017;-66
2020/12/01 07:40:25;;;;;;;53.35;30.65;;;5.50;99.90;;;;;;5073476;28;20028;-67
2020/12/01 07:42:58;;;;;;;54.72;28.42;;;5.60;99.90;;;;;;5069131;28;20048;-65
2020/12/01 07:45:24;;;;;;;40.40;22.58;;;5.60;99.90;;;;;;5064569;28;20028;-64
2020/12/01 07:47:56;;;;;;;38.75;19.75;;;5.50;99.90;;;;;;5089957;28;20108;-67
2020/12/01 07:50:21;;;;;;;38.35;19.00;;;5.50;99.90;;;;;;5088839;28;20436;-67
2020/12/01 07:52:52;;;;;;;36.65;18.08;;;5.50;99.90;;;;;;5088718;28;20028;-67
2020/12/01 07:55:45;;;;;;;37.50;20.27;;;5.60;99.90;;;;;;5089821;28;20016;-67
2020/12/01 07:58:17;;;;;;;42.75;19.55;;;5.50;99.90;;;;;;5085496;28;20028;-68
2020/12/01 08:00:49;;;;;;;39.43;20.13;;;5.60;99.90;;;;;;5088127;28;20418;-65
2020/12/01 08:03:20;;;;;;;44.17;20.38;;;5.60;99.90;;;;;;5090067;28;20020;-66
2020/12/01 08:05:47;;;;;;;37.67;18.85;;;5.60;99.90;;;;;;5079921;28;20029;-67
2020/12/01 08:08:16;;;;;;;43.72;20.02;;;5.60;99.90;;;;;;5089121;28;20021;-68
2020/12/01 08:10:43;;;;;;;42.45;20.85;;;5.70;99.90;;;;;;5068927;28;20375;-66
2020/12/01 08:13:09;;;;;;;36.08;18.63;;;5.70;99.90;;;;;;5069615;28;20078;-66
2020/12/01 08:15:35;;;;;;;41.38;21.10;;;5.70;99.90;;;;;;5069171;28;20108;-67
2020/12/01 08:18:04;;;;;;;42.72;20.10;;;5.60;99.90;;;;;;5067932;28;20024;-67
2020/12/01 08:20:30;;;;;;;40.47;20.83;;;5.70;99.90;;;;;;5069079;28;20051;-66
2020/12/01 08:23:18;;;;;;;49.53;20.77;;;5.70;99.90;;;;;;5067696;28;20028;-66
2020/12/01 08:25:51;;;;;;;45.88;21.15;;;5.70;99.90;;;;;;5069074;28;20017;-66
2020/12/01 08:28:24;;;;;;;49.85;22.17;;;5.70;99.90;;;;;;5084862;28;20056;-66
2020/12/01 08:31:00;;;;;;;56.30;24.10;;;5.70;99.90;;;;;;5063062;28;20040;-66
2020/12/01 08:33:57;;;;;;;49.10;22.50;;;5.70;99.90;;;;;;5065112;28;20048;-67
2020/12/01 08:36:39;;;;;;;62.30;24.20;;;5.80;99.90;;;;;;5073686;28;20019;-67
2020/12/01 08:39:35;;;;;;;60.58;25.98;;;5.90;99.90;;;;;;5073763;28;20032;-69
2020/12/01 08:42:23;;;;;;;69.53;29.05;;;5.90;99.90;;;;;;5074436;28;20048;-66
2020/12/01 08:47:37;;;;;;;67.60;30.33;;;6.00;99.90;;;;;;5069418;28;20753;-69
2020/12/01 08:50:24;;;;;;;70.40;31.42;;;6.10;99.90;;;;;;5070318;28;20029;-68
2020/12/01 08:53:01;;;;;;;80.88;34.53;;;6.20;99.90;;;;;;5070610;28;20435;-68
2020/12/01 08:55:37;;;;;;;76.40;32.70;;;6.20;99.90;;;;;;5070419;28;20024;-68
2020/12/01 08:58:42;;;;;;;85.50;34.78;;;6.40;99.90;;;;;;5069244;28;20475;-67
2020/12/01 09:01:11;;;;;;;86.28;32.42;;;6.40;99.90;;;;;;5070237;28;20122;-67
2020/12/01 09:03:40;;;;;;;92.32;33.47;;;6.30;99.90;;;;;;5066982;28;20104;-70
2020/12/01 09:06:18;;;;;;;83.47;34.25;;;6.40;99.90;;;;;;5069936;28;20123;-70
2020/12/01 09:08:55;;;;;;;87.30;32.63;;;6.40;99.90;;;;;;5069122;28;20027;-66
2020/12/01 09:14:05;;;;;;;92.53;33.83;;;6.40;99.90;;;;;;5070308;28;20020;-67
2020/12/01 09:16:42;;;;;;;85.93;34.63;;;6.30;99.90;;;;;;5058557;28;20072;-68
2020/12/01 09:22:06;;;;;;;77.53;34.15;;;6.40;99.90;;;;;;5070161;28;20371;-68
2020/12/01 09:24:32;;;;;;;83.80;34.13;;;6.40;99.90;;;;;;5054414;28;20033;-68
2020/12/01 09:27:19;;;;;;;91.20;34.30;;;6.50;99.90;;;;;;5058842;28;20033;-67
2020/12/01 09:29:46;;;;;;;91.13;35.75;;;6.50;99.90;;;;;;5063812;28;20021;-66
2020/12/01 09:32:20;;;;;;;87.57;34.65;;;6.40;99.90;;;;;;5055284;28;20548;-66
2020/12/01 09:34:46;;;;;;;96.20;34.60;;;6.40;99.90;;;;;;5049561;28;20027;-67
2020/12/01 09:37:11;;;;;;;81.47;34.35;;;6.40;99.90;;;;;;5048229;28;20029;-66
2020/12/01 09:39:37;;;;;;;105.32;35.78;;;6.50;99.90;;;;;;5056683;28;20049;-66
2020/12/01 09:42:13;;;;;;;89.55;36.75;;;6.50;99.90;;;;;;5063062;28;20036;-67
2020/12/01 09:44:52;;;;;;;93.28;36.53;;;6.50;99.90;;;;;;5065609;28;20017;-67
2020/12/01 09:47:29;;;;;;;99.47;39.25;;;6.60;99.90;;;;;;5066554;28;20040;-66
2020/12/01 09:49:55;;;;;;;102.63;38.13;;;6.60;99.90;;;;;;5050437;28;20467;-66
2020/12/01 09:52:25;;;;;;;110.13;41.22;;;6.60;99.90;;;;;;5057944;28;20162;-67
2020/12/01 09:55:01;;;;;;;99.88;37.70;;;6.60;99.90;;;;;;5058037;28;20025;-68
2020/12/01 09:57:46;;;;;;;107.90;39.30;;;6.80;99.90;;;;;;5049899;28;20417;-67
2020/12/01 10:00:31;;;;;;;105.88;37.38;;;6.80;99.90;;;;;;5044283;28;20109;-66
2020/12/01 10:07:34;;;;;;;98.03;37.85;;;6.80;99.90;;;;;;5110291;27;20896;-68
2020/12/01 10:08:47;;;;;;;101.43;36.35;;;6.80;99.90;;;;;;5104782;28;20032;-67
2020/12/01 10:14:08;;;;;;;96.15;35.38;;;6.80;99.90;;;;;;5097132;28;20031;-68
2020/12/01 10:16:57;;;;;;;102.88;36.97;;;6.80;99.90;;;;;;5103067;28;20035;-66
2020/12/01 10:28:40;;;;;;;97.68;38.05;;;7.10;99.90;;;;;;5109278;28;20065;-66
2020/12/01 10:35:54;;;;;;;91.97;35.25;;;7.00;99.90;;;;;;5100892;28;20026;-67
2020/12/01 10:38:19;;;;;;;87.45;35.65;;;7.00;99.90;;;;;;5097893;28;20020;-65
2020/12/01 10:40:45;;;;;;;96.45;35.90;;;7.00;99.90;;;;;;5099415;28;20106;-66
2020/12/01 10:43:12;;;;;;;90.70;35.17;;;7.00;99.90;;;;;;5095041;28;20070;-69
2020/12/01 10:45:37;;;;;;;93.78;35.35;;;7.00;99.90;;;;;;5108142;28;20442;-69
2020/12/01 10:48:03;;;;;;;80.20;34.47;;;7.00;99.90;;;;;;5097711;28;20020;-66
2020/12/01 10:50:30;;;;;;;86.25;33.75;;;7.10;99.90;;;;;;5101787;28;20028;-66
2020/12/01 10:52:57;;;;;;;85.28;34.78;;;7.10;99.90;;;;;;5097368;28;20078;-67
2020/12/01 10:55:28;;;;;;;88.07;35.50;;;7.10;99.90;;;;;;5091287;28;20021;-68
2020/12/01 10:57:54;;;;;;;81.95;35.92;;;7.20;99.90;;;;;;5098243;28;20035;-67
2020/12/01 11:00:24;;;;;;;87.38;34.20;;;7.20;99.90;;;;;;5099107;28;20036;-67
2020/12/01 11:02:49;;;;;;;88.75;36.05;;;7.20;99.90;;;;;;5095868;28;20029;-67
2020/12/01 11:05:27;;;;;;;83.78;35.00;;;7.30;99.90;;;;;;5099558;28;20036;-67
2020/12/01 11:07:52;;;;;;;81.85;33.85;;;7.20;99.90;;;;;;5098077;28;20020;-67
2020/12/01 11:10:19;;;;;;;79.65;35.50;;;7.30;99.90;;;;;;5099534;28;20108;-68
2020/12/01 11:12:45;;;;;;;83.82;34.03;;;7.30;99.90;;;;;;5098350;28;20048;-67
2020/12/01 11:15:10;;;;;;;76.55;34.85;;;7.20;99.90;;;;;;5098007;28;20062;-67
2020/12/01 11:17:36;;;;;;;79.70;33.55;;;7.20;99.90;;;;;;5083947;28;20115;-68
2020/12/01 11:20:05;;;;;;;76.65;33.35;;;7.20;99.90;;;;;;5084302;28;20111;-68
2020/12/01 11:22:31;;;;;;;74.07;32.53;;;7.20;99.90;;;;;;5085472;28;20028;-68
2020/12/01 11:24:56;;;;;;;74.68;34.92;;;7.20;99.90;;;;;;5084544;28;20030;-67
2020/12/01 11:27:22;;;;;;;80.13;35.70;;;7.30;99.90;;;;;;5084868;28;20462;-67
2020/12/01 11:29:47;;;;;;;81.78;36.10;;;7.30;99.90;;;;;;5085690;28;20395;-67
2020/12/01 11:32:13;;;;;;;76.30;36.38;;;7.40;99.90;;;;;;5082893;28;20059;-68
2020/12/01 11:34:38;;;;;;;81.57;36.40;;;7.40;99.90;;;;;;5084738;28;20016;-68
2020/12/01 11:37:04;;;;;;;84.55;36.10;;;7.40;99.90;;;;;;5083990;28;20028;-68
2020/12/01 11:39:29;;;;;;;80.70;35.13;;;7.50;99.90;;;;;;5090208;28;20031;-68
2020/12/01 11:41:55;;;;;;;77.15;33.63;;;7.40;99.90;;;;;;5094383;28;20118;-67
2020/12/01 11:44:21;;;;;;;73.60;32.80;;;7.30;99.90;;;;;;5094204;28;20077;-67
2020/12/01 11:46:46;;;;;;;75.35;32.25;;;7.40;99.90;;;;;;5086187;28;20032;-68
2020/12/01 11:49:12;;;;;;;75.75;33.38;;;7.40;99.90;;;;;;5080891;28;20439;-67
2020/12/01 11:51:40;;;;;;;79.90;33.80;;;7.40;99.90;;;;;;5070470;28;20267;-68
2020/12/01 11:54:09;;;;;;;78.88;35.88;;;7.40;99.90;;;;;;5091192;28;20073;-68
2020/12/01 11:56:34;;;;;;;79.45;36.08;;;7.50;99.90;;;;;;5095915;28;20020;-68
2020/12/01 11:59:00;;;;;;;79.38;34.95;;;7.50;99.90;;;;;;5079270;28;20120;-67
2020/12/01 12:01:26;;;;;;;86.10;36.35;;;7.50;99.90;;;;;;5074308;28;20029;-67
2020/12/01 12:03:52;;;;;;;80.22;34.72;;;7.50;99.90;;;;;;5075183;28;20044;-68
2020/12/01 12:06:18;;;;;;;82.60;35.28;;;7.60;99.90;;;;;;5082281;28;20036;-68
2020/12/01 12:08:44;;;;;;;75.10;33.08;;;7.60;99.90;;;;;;5084201;28;20497;-67
2020/12/01 12:11:10;;;;;;;82.95;35.42;;;7.70;99.90;;;;;;5087290;28;20101;-68
2020/12/01 12:13:36;;;;;;;82.28;35.08;;;7.70;99.90;;;;;;5081345;28;20478;-69
2020/12/01 12:16:02;;;;;;;78.78;33.97;;;7.70;99.90;;;;;;5079477;28;20086;-68
2020/12/01 12:18:27;;;;;;;75.50;33.47;;;7.80;99.90;;;;;;5087007;28;20065;-68
2020/12/01 12:20:53;;;;;;;69.85;32.95;;;7.90;99.90;;;;;;5086247;28;20029;-68
2020/12/01 12:23:18;;;;;;;71.38;33.95;;;8.00;99.90;;;;;;5087628;28;20028;-67
2020/12/01 12:25:45;;;;;;;82.57;33.72;;;8.00;99.90;;;;;;5094734;28;20487;-68
2020/12/01 12:28:11;;;;;;;77.57;33.58;;;7.90;99.90;;;;;;5093869;28;20012;-68
2020/12/01 12:30:38;;;;;;;84.63;36.03;;;7.90;99.90;;;;;;5093210;28;20160;-68
2020/12/01 12:33:04;;;;;;;73.70;34.53;;;7.90;99.90;;;;;;5092156;28;20016;-67
2020/12/01 12:35:29;;;;;;;70.13;33.80;;;7.90;99.90;;;;;;5074308;28;20029;-68
2020/12/01 12:37:55;;;;;;;66.43;31.77;;;8.00;99.90;;;;;;5074247;28;20028;-68
2020/12/01 12:40:21;;;;;;;65.78;30.63;;;8.00;99.90;;;;;;5094086;28;20028;-68
2020/12/01 12:42:47;;;;;;;70.43;33.10;;;8.00;99.90;;;;;;5093133;28;20023;-68
2020/12/01 12:45:13;;;;;;;65.07;31.30;;;8.00;99.90;;;;;;5086235;28;20461;-68
2020/12/01 12:47:40;;;;;;;71.47;31.13;;;8.00;99.90;;;;;;5080815;28;20470;-68
2020/12/01 12:50:07;;;;;;;62.88;30.75;;;8.10;99.90;;;;;;5083917;28;20152;-67
2020/12/01 12:52:33;;;;;;;71.32;32.22;;;8.00;99.90;;;;;;5083665;28;20027;-67
2020/12/01 12:54:58;;;;;;;64.05;30.73;;;8.00;99.90;;;;;;5079247;28;20024;-68
2020/12/01 12:57:24;;;;;;;65.60;30.52;;;8.00;99.90;;;;;;5082147;28;20035;-67
2020/12/01 12:59:49;;;;;;;67.57;29.75;;;8.00;99.90;;;;;;5089211;28;20028;-68
2020/12/01 13:02:15;;;;;;;59.03;27.13;;;8.00;99.90;;;;;;5089085;28;20343;-66
2020/12/01 13:04:41;;;;;;;56.63;27.25;;;8.10;99.90;;;;;;5088989;28;20040;-66
2020/12/01 13:07:07;;;;;;;68.60;30.17;;;8.10;99.90;;;;;;5087997;28;20103;-68
2020/12/01 13:09:33;;;;;;;74.82;33.40;;;8.10;99.90;;;;;;5088579;28;20028;-67
2020/12/01 13:11:59;;;;;;;76.97;34.10;;;8.20;99.90;;;;;;5078241;28;20119;-68
2020/12/01 13:14:24;;;;;;;73.82;32.53;;;8.30;99.90;;;;;;5072756;28;20056;-67
2020/12/01 13:16:52;;;;;;;71.20;32.78;;;8.30;99.90;;;;;;5072556;28;20025;-66
2020/12/01 13:19:18;;;;;;;65.60;31.85;;;8.30;99.90;;;;;;5077924;28;20028;-67
2020/12/01 13:21:44;;;;;;;61.28;31.50;;;8.30;99.90;;;;;;5079790;28;20078;-68
2020/12/01 13:24:10;;;;;;;75.63;32.58;;;8.30;99.90;;;;;;5072412;28;20024;-68
2020/12/01 13:26:35;;;;;;;67.72;33.15;;;8.30;99.90;;;;;;5072309;28;20024;-66
2020/12/01 13:29:01;;;;;;;71.53;32.25;;;8.30;99.90;;;;;;5072616;28;20489;-67
2020/12/01 13:31:26;;;;;;;71.80;31.42;;;8.30;99.90;;;;;;5075882;28;20017;-67
2020/12/01 13:33:52;;;;;;;58.38;29.00;;;8.30;99.90;;;;;;5066981;28;20036;-68